createdAt,value
2019-03-28T00:00:12.493Z,91.40
2019-03-28T00:05:18.771Z,91.50
2019-03-28T00:10:23.590Z,91.40
2019-03-28T00:15:28.563Z,91.40
2019-03-28T00:20:33.611Z,91.40
2019-03-28T00:25:38.660Z,91.50
2019-03-28T00:30:44.346Z,91.40
2019-03-28T00:35:50.066Z,91.20
2019-03-28T00:40:55.220Z,91.40
2019-03-28T00:46:00.086Z,91.40
2019-03-28T00:51:05.135Z,91.50
2019-03-28T00:56:09.957Z,91.60
2019-03-28T01:01:14.928Z,91.70
2019-03-28T01:06:19.949Z,91.70
2019-03-28T01:11:24.793Z,91.70
2019-03-28T01:16:30.663Z,91.70
2019-03-28T01:21:35.736Z,91.80
2019-03-28T01:26:42.014Z,91.80
2019-03-28T01:31:47.063Z,91.80
2019-03-28T01:36:53.648Z,91.80
2019-03-28T01:41:58.326Z,91.70
2019-03-28T01:47:03.214Z,91.70
2019-03-28T01:52:09.183Z,91.60
2019-03-28T01:57:14.153Z,91.30
2019-03-28T02:02:18.871Z,91.10
2019-03-28T02:07:23.947Z,91.10
2019-03-28T02:12:28.993Z,91.20
2019-03-28T02:17:33.735Z,91.10
2019-03-28T02:22:38.788Z,91.10
2019-03-28T02:27:43.833Z,91.00
2019-03-28T02:32:48.578Z,90.90
2019-03-28T02:37:54.010Z,91.00
2019-03-28T02:42:58.984Z,91.10
2019-03-28T02:48:04.032Z,91.20
2019-03-28T02:53:08.781Z,91.20
2019-03-28T02:58:13.514Z,91.20
2019-03-28T03:03:18.567Z,91.30
2019-03-28T03:08:23.613Z,91.20
2019-03-28T03:13:28.358Z,91.30
2019-03-28T03:18:33.794Z,91.30
2019-03-28T03:23:38.742Z,91.70
2019-03-28T03:28:43.591Z,91.60
2019-03-28T03:33:48.552Z,91.60
2019-03-28T03:38:53.907Z,91.70
2019-03-28T03:43:58.650Z,91.50
2019-03-28T03:49:04.049Z,91.30
2019-03-28T03:54:09.669Z,91.30
2019-03-28T03:59:14.721Z,91.20
2019-03-28T04:04:19.342Z,91.00
2019-03-28T04:09:24.204Z,90.90
2019-03-28T04:14:28.945Z,90.60
2019-03-28T04:19:34.302Z,90.60
2019-03-28T04:24:39.044Z,90.40
2019-03-28T04:29:43.785Z,90.50
2019-03-28T04:34:48.528Z,90.40
2019-03-28T04:39:55.116Z,90.50
2019-03-28T04:45:00.854Z,90.50
2019-03-28T04:50:06.525Z,90.50
2019-03-28T04:55:11.488Z,90.50
2019-03-28T05:00:18.079Z,90.40
2019-03-28T05:05:22.895Z,90.20
2019-03-28T05:10:27.534Z,90.20
2019-03-28T05:15:32.606Z,89.80
2019-03-28T05:20:37.656Z,90.00
2019-03-28T05:25:42.399Z,90.00
2019-03-28T05:30:47.140Z,90.10
2019-03-28T05:35:52.297Z,90.10
2019-03-28T05:40:57.239Z,90.10
2019-03-28T05:46:02.880Z,90.20
2019-03-28T05:51:07.964Z,90.00
2019-03-28T05:56:13.002Z,89.40
2019-03-28T06:01:17.750Z,88.40
2019-03-28T06:06:22.486Z,86.90
2019-03-28T06:11:27.233Z,85.40
2019-03-28T06:16:31.971Z,84.00
2019-03-28T06:21:39.509Z,83.40
2019-03-28T06:26:43.283Z,84.70
2019-03-28T06:31:55.052Z,84.30
2019-03-28T06:36:54.599Z,84.00
2019-03-28T06:41:59.443Z,82.10
2019-03-28T06:47:04.724Z,82.20
2019-03-28T06:52:09.771Z,82.90
2019-03-28T06:57:14.829Z,83.10
2019-03-28T07:02:21.892Z,81.50
2019-03-28T07:07:26.147Z,81.20
2019-03-28T07:12:31.198Z,81.00
2019-03-28T07:17:36.025Z,79.20
2019-03-28T07:22:41.886Z,77.60
2019-03-28T07:27:47.862Z,76.30
2019-03-28T07:32:52.807Z,76.30
2019-03-28T07:37:58.904Z,75.10
2019-03-28T07:43:03.648Z,74.10
2019-03-28T07:48:08.474Z,75.00
2019-03-28T07:53:13.435Z,73.80
2019-03-28T07:58:18.482Z,73.60
2019-03-28T08:03:23.304Z,74.20
2019-03-28T08:08:38.263Z,74.60
2019-03-28T08:13:34.559Z,73.60
2019-03-28T08:18:39.602Z,74.40
2019-03-28T08:23:44.346Z,75.00
2019-03-28T08:28:50.314Z,75.20
2019-03-28T08:33:56.286Z,75.00
2019-03-28T08:39:01.002Z,76.30
2019-03-28T08:44:07.618Z,75.40
2019-03-28T08:49:12.662Z,75.40
2019-03-28T08:54:17.490Z,74.90
2019-03-28T08:59:22.452Z,74.40
2019-03-28T09:04:27.501Z,74.00
2019-03-28T09:09:32.322Z,73.30
2019-03-28T09:14:37.293Z,72.50
2019-03-28T09:19:42.351Z,73.60
2019-03-28T09:24:47.070Z,74.30
2019-03-28T09:29:52.134Z,73.00
2019-03-28T09:34:57.764Z,72.80
2019-03-28T09:40:02.626Z,71.90
2019-03-28T09:45:09.262Z,70.90
2019-03-28T09:50:14.275Z,69.60
2019-03-28T09:55:19.228Z,69.60
2019-03-28T10:00:24.044Z,69.30
2019-03-28T10:05:29.002Z,66.70
2019-03-28T10:10:33.735Z,65.90
2019-03-28T10:15:38.523Z,65.10
2019-03-28T10:20:43.564Z,63.60
2019-03-28T10:25:48.903Z,67.80
2019-03-28T10:30:53.960Z,65.90
2019-03-28T10:35:59.004Z,62.60
2019-03-28T10:41:04.051Z,60.00
2019-03-28T10:46:09.101Z,61.50
2019-03-28T10:51:14.149Z,63.50
2019-03-28T10:56:23.378Z,66.60
2019-03-28T11:01:46.968Z,67.90
2019-03-28T11:06:32.781Z,70.10
2019-03-28T11:11:37.726Z,68.30
2019-03-28T11:16:42.469Z,68.50
2019-03-28T11:21:47.197Z,68.50
2019-03-28T11:26:52.046Z,67.80
2019-03-28T11:31:57.005Z,69.70
2019-03-28T11:37:02.030Z,71.20
2019-03-28T11:42:06.976Z,67.60
2019-03-28T11:47:12.037Z,65.70
2019-03-28T11:52:16.895Z,67.20
2019-03-28T11:57:21.948Z,67.80
2019-03-28T12:02:26.990Z,67.30
2019-03-28T12:07:31.735Z,66.40
2019-03-28T12:12:36.567Z,65.80
2019-03-28T12:17:41.524Z,66.10
2019-03-28T12:22:46.215Z,66.10
2019-03-28T12:27:51.319Z,66.70
2019-03-28T12:32:56.057Z,67.00
2019-03-28T12:38:00.798Z,63.90
2019-03-28T12:43:05.621Z,64.10
2019-03-28T12:48:10.981Z,62.30
2019-03-28T12:53:15.956Z,61.60
2019-03-28T12:58:20.690Z,62.50
2019-03-28T13:03:25.388Z,58.40
2019-03-28T13:08:31.708Z,57.30
2019-03-28T13:13:36.758Z,57.60
2019-03-28T13:18:41.810Z,57.10
2019-03-28T13:23:46.554Z,58.60
2019-03-28T13:28:51.908Z,54.60
2019-03-28T13:33:57.649Z,59.20
2019-03-28T13:39:02.618Z,54.20
2019-03-28T13:44:07.672Z,54.30
2019-03-28T13:49:14.033Z,57.30
2019-03-28T13:54:19.579Z,56.00
2019-03-28T13:59:24.875Z,54.00
2019-03-28T14:04:29.600Z,55.10
2019-03-28T14:09:34.328Z,55.60
2019-03-28T14:14:40.076Z,55.20
2019-03-28T14:19:45.161Z,55.80
2019-03-28T14:24:50.217Z,55.00
2019-03-28T14:29:54.953Z,55.00
2019-03-28T14:35:00.367Z,56.60
2019-03-28T14:40:08.124Z,58.10
2019-03-28T14:45:13.257Z,59.30
2019-03-28T14:50:21.717Z,56.50
2019-03-28T14:55:26.956Z,57.00
2019-03-28T15:00:46.389Z,58.20
2019-03-28T15:05:49.651Z,59.40
2019-03-28T15:10:54.704Z,59.80
2019-03-28T15:15:59.457Z,60.00
2019-03-28T15:21:04.501Z,61.80
2019-03-28T15:26:09.540Z,63.60
2019-03-28T15:31:14.591Z,63.40
2019-03-28T15:36:19.409Z,62.70
2019-03-28T15:41:24.356Z,61.90
2019-03-28T15:46:29.429Z,63.60
2019-03-28T15:51:35.478Z,64.00
2019-03-28T15:56:40.230Z,64.70
2019-03-28T16:01:44.968Z,64.30
2019-03-28T16:06:49.952Z,64.60
2019-03-28T16:12:02.402Z,63.10
2019-03-28T16:17:01.556Z,64.20
2019-03-28T16:22:06.617Z,64.40
2019-03-28T16:27:11.671Z,64.20
2019-03-28T16:32:17.052Z,64.30
2019-03-28T16:37:22.080Z,64.60
2019-03-28T16:42:27.125Z,64.90
2019-03-28T16:47:32.175Z,65.50
2019-03-28T16:52:37.525Z,66.50
2019-03-28T16:57:42.267Z,66.30
2019-03-28T17:02:47.317Z,65.30
2019-03-28T17:07:52.368Z,63.90
2019-03-28T17:12:57.186Z,62.60
2019-03-28T17:18:02.157Z,62.90
2019-03-28T17:23:07.287Z,63.50
2019-03-28T17:28:12.259Z,64.20
2019-03-28T17:33:17.931Z,66.40
2019-03-28T17:38:22.854Z,66.00
2019-03-28T17:43:27.715Z,65.80
2019-03-28T17:48:32.535Z,66.40
2019-03-28T17:53:37.817Z,67.20
2019-03-28T17:58:42.502Z,68.20
2019-03-28T18:03:47.603Z,69.90
2019-03-28T18:08:52.650Z,70.60
2019-03-28T18:13:57.491Z,71.90
2019-03-28T18:19:02.753Z,72.70
2019-03-28T18:24:07.489Z,74.60
2019-03-28T18:29:12.539Z,75.40
2019-03-28T18:34:17.282Z,75.80
2019-03-28T18:39:22.331Z,76.10
2019-03-28T18:44:27.154Z,75.90
2019-03-28T18:49:32.121Z,77.00
2019-03-28T18:54:37.171Z,77.40
2019-03-28T18:59:42.219Z,77.70
2019-03-28T19:04:47.275Z,77.40
2019-03-28T19:09:52.095Z,77.60
2019-03-28T19:14:57.341Z,77.80
2019-03-28T19:20:03.338Z,77.60
2019-03-28T19:25:09.390Z,77.90
2019-03-28T19:30:14.979Z,78.90
2019-03-28T19:35:32.223Z,79.60
2019-03-28T19:40:26.274Z,79.70
2019-03-28T19:45:36.374Z,79.60
2019-03-28T19:50:41.947Z,80.20
2019-03-28T19:55:47.591Z,80.20
2019-03-28T20:00:52.646Z,80.80
2019-03-28T20:05:57.393Z,79.40
2019-03-28T20:11:02.746Z,80.90
2019-03-28T20:16:07.493Z,80.60
2019-03-28T20:21:12.919Z,80.40
2019-03-28T20:26:19.761Z,80.40
2019-03-28T20:31:24.484Z,80.70
2019-03-28T20:36:37.485Z,80.70
2019-03-28T20:41:35.800Z,80.40
2019-03-28T20:46:41.018Z,79.70
2019-03-28T20:51:47.141Z,79.50
2019-03-28T20:56:52.178Z,80.30
2019-03-28T21:01:57.059Z,80.20
2019-03-28T21:07:03.175Z,82.00
2019-03-28T21:12:07.938Z,82.00
2019-03-28T21:17:12.679Z,83.80
2019-03-28T21:22:17.729Z,83.70
2019-03-28T21:27:22.783Z,83.70
2019-03-28T21:32:27.829Z,84.30
2019-03-28T21:37:32.570Z,84.40
2019-03-28T21:42:37.312Z,85.90
2019-03-28T21:47:42.053Z,85.40
2019-03-28T21:52:47.103Z,86.30
2019-03-28T21:57:52.158Z,87.30
2019-03-28T22:02:56.895Z,87.40
2019-03-28T22:08:02.099Z,87.00
2019-03-28T22:13:06.996Z,86.70
2019-03-28T22:18:11.734Z,87.10
2019-03-28T22:23:16.787Z,85.60
2019-03-28T22:28:21.502Z,85.40
2019-03-28T22:33:27.578Z,85.60
2019-03-28T22:38:32.546Z,87.20
2019-03-28T22:43:38.782Z,86.90
2019-03-28T22:48:44.518Z,86.90
2019-03-28T22:53:49.306Z,86.90
2019-03-28T22:58:54.280Z,86.40
2019-03-28T23:03:59.327Z,86.40
2019-03-28T23:09:05.588Z,89.00
2019-03-28T23:14:10.669Z,89.20
2019-03-28T23:19:15.705Z,85.60
2019-03-28T23:24:20.447Z,88.20
2019-03-28T23:29:25.509Z,88.10
2019-03-28T23:34:30.523Z,88.70
2019-03-28T23:39:35.570Z,89.50
2019-03-28T23:44:40.644Z,89.20
2019-03-28T23:49:45.677Z,88.50
2019-03-28T23:54:50.792Z,89.10
2019-03-28T23:59:55.792Z,88.90
